sensor_id;sensor_type;location;lat;lon;timestamp;P1;durP1;ratioP1;P2;durP2;ratioP2
9438;SDS011;5176;42.622;25.386;2023-02-28T00:01:34;14.27;;;10.80;;
9438;SDS011;5176;42.622;25.386;2023-02-28T00:04:03;16.87;;;11.43;;
9438;SDS011;5176;42.622;25.386;2023-02-28T00:06:34;18.20;;;11.07;;
9438;SDS011;5176;42.622;25.386;2023-02-28T00:09:03;15.57;;;11.93;;
9438;SDS011;5176;42.622;25.386;2023-02-28T00:11:31;14.07;;;11.67;;
9438;SDS011;5176;42.622;25.386;2023-02-28T00:14:00;23.70;;;11.53;;
9438;SDS011;5176;42.622;25.386;2023-02-28T00:16:28;16.20;;;11.80;;
9438;SDS011;5176;42.622;25.386;2023-02-28T00:18:57;16.87;;;12.27;;
9438;SDS011;5176;42.622;25.386;2023-02-28T00:21:25;14.00;;;11.43;;
9438;SDS011;5176;42.622;25.386;2023-02-28T00:23:56;14.63;;;10.50;;
9438;SDS011;5176;42.622;25.386;2023-02-28T00:26:24;15.13;;;10.80;;
9438;SDS011;5176;42.622;25.386;2023-02-28T00:28:53;14.33;;;11.20;;
9438;SDS011;5176;42.622;25.386;2023-02-28T00:31:22;15.40;;;10.87;;
9438;SDS011;5176;42.622;25.386;2023-02-28T00:33:51;21.00;;;12.17;;
9438;SDS011;5176;42.622;25.386;2023-02-28T00:36:19;15.17;;;12.33;;
9438;SDS011;5176;42.622;25.386;2023-02-28T00:38:48;20.00;;;11.83;;
9438;SDS011;5176;42.622;25.386;2023-02-28T00:41:18;14.93;;;12.17;;
9438;SDS011;5176;42.622;25.386;2023-02-28T00:43:46;17.80;;;12.30;;
9438;SDS011;5176;42.622;25.386;2023-02-28T00:46:15;15.40;;;11.97;;
9438;SDS011;5176;42.622;25.386;2023-02-28T00:48:44;18.43;;;12.43;;
9438;SDS011;5176;42.622;25.386;2023-02-28T00:51:13;18.40;;;12.20;;
9438;SDS011;5176;42.622;25.386;2023-02-28T00:53:41;16.00;;;12.37;;
9438;SDS011;5176;42.622;25.386;2023-02-28T00:56:10;14.20;;;11.73;;
9438;SDS011;5176;42.622;25.386;2023-02-28T00:58:41;18.23;;;11.53;;
9438;SDS011;5176;42.622;25.386;2023-02-28T01:01:09;16.73;;;11.03;;
9438;SDS011;5176;42.622;25.386;2023-02-28T01:03:38;15.60;;;12.00;;
9438;SDS011;5176;42.622;25.386;2023-02-28T01:06:07;19.33;;;12.57;;
9438;SDS011;5176;42.622;25.386;2023-02-28T01:08:35;15.30;;;12.60;;
9438;SDS011;5176;42.622;25.386;2023-02-28T01:11:09;16.13;;;11.47;;
9438;SDS011;5176;42.622;25.386;2023-02-28T01:13:40;13.57;;;10.70;;
9438;SDS011;5176;42.622;25.386;2023-02-28T01:16:09;16.27;;;11.03;;
9438;SDS011;5176;42.622;25.386;2023-02-28T01:18:37;13.97;;;11.17;;
9438;SDS011;5176;42.622;25.386;2023-02-28T01:21:07;16.37;;;11.87;;
9438;SDS011;5176;42.622;25.386;2023-02-28T01:23:38;13.60;;;11.30;;
9438;SDS011;5176;42.622;25.386;2023-02-28T01:26:06;14.53;;;10.97;;
9438;SDS011;5176;42.622;25.386;2023-02-28T01:28:37;14.27;;;10.20;;
9438;SDS011;5176;42.622;25.386;2023-02-28T01:31:07;13.77;;;10.83;;
9438;SDS011;5176;42.622;25.386;2023-02-28T01:33:37;13.43;;;10.80;;
9438;SDS011;5176;42.622;25.386;2023-02-28T01:36:07;12.63;;;10.80;;
9438;SDS011;5176;42.622;25.386;2023-02-28T01:38:38;14.17;;;11.57;;
9438;SDS011;5176;42.622;25.386;2023-02-28T01:41:08;15.20;;;11.10;;
9438;SDS011;5176;42.622;25.386;2023-02-28T01:43:55;17.63;;;11.70;;
9438;SDS011;5176;42.622;25.386;2023-02-28T01:46:31;14.93;;;10.53;;
9438;SDS011;5176;42.622;25.386;2023-02-28T01:49:02;12.57;;;10.57;;
9438;SDS011;5176;42.622;25.386;2023-02-28T01:51:37;12.93;;;10.60;;
9438;SDS011;5176;42.622;25.386;2023-02-28T01:54:13;13.20;;;10.57;;
9438;SDS011;5176;42.622;25.386;2023-02-28T01:56:45;13.97;;;11.17;;
9438;SDS011;5176;42.622;25.386;2023-02-28T01:59:20;13.20;;;11.07;;
9438;SDS011;5176;42.622;25.386;2023-02-28T02:01:54;14.90;;;10.77;;
9438;SDS011;5176;42.622;25.386;2023-02-28T02:04:23;16.50;;;11.07;;
9438;SDS011;5176;42.622;25.386;2023-02-28T02:06:55;15.60;;;11.63;;
9438;SDS011;5176;42.622;25.386;2023-02-28T02:09:23;15.70;;;11.17;;
9438;SDS011;5176;42.622;25.386;2023-02-28T02:11:52;16.33;;;10.87;;
9438;SDS011;5176;42.622;25.386;2023-02-28T02:14:34;14.93;;;10.90;;
9438;SDS011;5176;42.622;25.386;2023-02-28T02:17:23;14.43;;;10.70;;
9438;SDS011;5176;42.622;25.386;2023-02-28T02:20:07;15.53;;;11.60;;
9438;SDS011;5176;42.622;25.386;2023-02-28T02:23:03;17.83;;;11.60;;
9438;SDS011;5176;42.622;25.386;2023-02-28T02:25:49;18.17;;;11.80;;
9438;SDS011;5176;42.622;25.386;2023-02-28T02:28:31;18.73;;;12.50;;
9438;SDS011;5176;42.622;25.386;2023-02-28T02:31:33;14.80;;;12.30;;
9438;SDS011;5176;42.622;25.386;2023-02-28T02:34:27;16.93;;;11.87;;
9438;SDS011;5176;42.622;25.386;2023-02-28T02:37:09;18.33;;;12.97;;
9438;SDS011;5176;42.622;25.386;2023-02-28T02:39:47;20.80;;;13.07;;
9438;SDS011;5176;42.622;25.386;2023-02-28T02:42:22;13.47;;;11.23;;
9438;SDS011;5176;42.622;25.386;2023-02-28T02:44:57;14.37;;;11.00;;
9438;SDS011;5176;42.622;25.386;2023-02-28T02:47:30;13.93;;;11.47;;
9438;SDS011;5176;42.622;25.386;2023-02-28T02:50:02;14.43;;;11.40;;
9438;SDS011;5176;42.622;25.386;2023-02-28T02:52:36;12.87;;;10.93;;
9438;SDS011;5176;42.622;25.386;2023-02-28T02:55:09;17.13;;;11.83;;
9438;SDS011;5176;42.622;25.386;2023-02-28T02:57:42;13.43;;;12.03;;
9438;SDS011;5176;42.622;25.386;2023-02-28T03:00:16;18.03;;;12.73;;
9438;SDS011;5176;42.622;25.386;2023-02-28T03:02:48;17.27;;;12.77;;
9438;SDS011;5176;42.622;25.386;2023-02-28T03:05:21;16.03;;;12.83;;
9438;SDS011;5176;42.622;25.386;2023-02-28T03:07:55;16.77;;;12.40;;
9438;SDS011;5176;42.622;25.386;2023-02-28T03:10:26;19.80;;;13.77;;
9438;SDS011;5176;42.622;25.386;2023-02-28T03:13:02;18.50;;;13.23;;
9438;SDS011;5176;42.622;25.386;2023-02-28T03:15:51;19.17;;;13.07;;
9438;SDS011;5176;42.622;25.386;2023-02-28T03:18:27;19.07;;;14.03;;
9438;SDS011;5176;42.622;25.386;2023-02-28T03:21:04;16.43;;;12.90;;
9438;SDS011;5176;42.622;25.386;2023-02-28T03:23:43;20.10;;;14.80;;
9438;SDS011;5176;42.622;25.386;2023-02-28T03:26:17;17.90;;;14.13;;
9438;SDS011;5176;42.622;25.386;2023-02-28T03:28:52;17.20;;;14.13;;
9438;SDS011;5176;42.622;25.386;2023-02-28T03:31:28;21.80;;;14.70;;
9438;SDS011;5176;42.622;25.386;2023-02-28T03:34:01;19.47;;;14.80;;
9438;SDS011;5176;42.622;25.386;2023-02-28T03:36:37;19.47;;;13.83;;
9438;SDS011;5176;42.622;25.386;2023-02-28T03:39:11;21.03;;;16.03;;
9438;SDS011;5176;42.622;25.386;2023-02-28T03:41:44;19.00;;;14.77;;
9438;SDS011;5176;42.622;25.386;2023-02-28T03:44:19;21.77;;;14.23;;
9438;SDS011;5176;42.622;25.386;2023-02-28T03:46:54;22.90;;;16.17;;
9438;SDS011;5176;42.622;25.386;2023-02-28T03:49:32;21.73;;;15.93;;
9438;SDS011;5176;42.622;25.386;2023-02-28T03:52:06;23.87;;;15.37;;
9438;SDS011;5176;42.622;25.386;2023-02-28T03:54:37;22.77;;;16.03;;
9438;SDS011;5176;42.622;25.386;2023-02-28T03:57:12;22.30;;;16.43;;
9438;SDS011;5176;42.622;25.386;2023-02-28T03:59:46;24.97;;;17.77;;
9438;SDS011;5176;42.622;25.386;2023-02-28T04:02:18;25.67;;;16.83;;
9438;SDS011;5176;42.622;25.386;2023-02-28T04:04:47;23.77;;;16.70;;
9438;SDS011;5176;42.622;25.386;2023-02-28T04:07:19;28.60;;;18.37;;
9438;SDS011;5176;42.622;25.386;2023-02-28T04:09:48;28.80;;;18.17;;
9438;SDS011;5176;42.622;25.386;2023-02-28T04:12:17;26.07;;;19.00;;
9438;SDS011;5176;42.622;25.386;2023-02-28T04:14:46;28.27;;;19.87;;
9438;SDS011;5176;42.622;25.386;2023-02-28T04:17:14;25.40;;;17.33;;
9438;SDS011;5176;42.622;25.386;2023-02-28T04:19:43;24.97;;;18.17;;
9438;SDS011;5176;42.622;25.386;2023-02-28T04:22:11;25.47;;;18.30;;
9438;SDS011;5176;42.622;25.386;2023-02-28T04:24:42;25.93;;;16.80;;
9438;SDS011;5176;42.622;25.386;2023-02-28T04:27:11;26.37;;;16.87;;
9438;SDS011;5176;42.622;25.386;2023-02-28T04:29:41;26.83;;;17.07;;
9438;SDS011;5176;42.622;25.386;2023-02-28T04:32:11;26.77;;;17.97;;
9438;SDS011;5176;42.622;25.386;2023-02-28T04:34:40;26.13;;;16.23;;
9438;SDS011;5176;42.622;25.386;2023-02-28T04:37:09;23.60;;;16.97;;
9438;SDS011;5176;42.622;25.386;2023-02-28T04:39:38;24.53;;;16.50;;
9438;SDS011;5176;42.622;25.386;2023-02-28T04:42:09;24.63;;;16.53;;
9438;SDS011;5176;42.622;25.386;2023-02-28T04:44:38;25.07;;;17.83;;
9438;SDS011;5176;42.622;25.386;2023-02-28T04:47:07;20.40;;;14.77;;
9438;SDS011;5176;42.622;25.386;2023-02-28T04:49:36;24.37;;;15.93;;
9438;SDS011;5176;42.622;25.386;2023-02-28T04:52:05;21.43;;;15.50;;
9438;SDS011;5176;42.622;25.386;2023-02-28T04:54:36;22.70;;;15.90;;
9438;SDS011;5176;42.622;25.386;2023-02-28T04:57:06;22.57;;;15.30;;
9438;SDS011;5176;42.622;25.386;2023-02-28T04:59:37;25.80;;;16.73;;
9438;SDS011;5176;42.622;25.386;2023-02-28T05:02:06;24.17;;;17.03;;
9438;SDS011;5176;42.622;25.386;2023-02-28T05:04:35;23.20;;;17.00;;
9438;SDS011;5176;42.622;25.386;2023-02-28T05:07:04;23.20;;;16.73;;
9438;SDS011;5176;42.622;25.386;2023-02-28T05:09:32;25.13;;;16.73;;
9438;SDS011;5176;42.622;25.386;2023-02-28T05:12:01;25.10;;;19.13;;
9438;SDS011;5176;42.622;25.386;2023-02-28T05:14:30;23.33;;;17.60;;
9438;SDS011;5176;42.622;25.386;2023-02-28T05:17:01;32.87;;;18.87;;
9438;SDS011;5176;42.622;25.386;2023-02-28T05:19:29;32.30;;;21.07;;
9438;SDS011;5176;42.622;25.386;2023-02-28T05:21:58;40.43;;;21.17;;
9438;SDS011;5176;42.622;25.386;2023-02-28T05:24:27;30.20;;;20.47;;
9438;SDS011;5176;42.622;25.386;2023-02-28T05:26:56;30.57;;;19.57;;
9438;SDS011;5176;42.622;25.386;2023-02-28T05:29:27;27.33;;;19.27;;
9438;SDS011;5176;42.622;25.386;2023-02-28T05:31:56;32.17;;;21.33;;
9438;SDS011;5176;42.622;25.386;2023-02-28T05:34:26;35.67;;;22.57;;
9438;SDS011;5176;42.622;25.386;2023-02-28T05:36:55;34.33;;;21.73;;
9438;SDS011;5176;42.622;25.386;2023-02-28T05:39:24;33.37;;;20.30;;
9438;SDS011;5176;42.622;25.386;2023-02-28T05:41:53;29.47;;;20.27;;
9438;SDS011;5176;42.622;25.386;2023-02-28T05:44:21;30.83;;;20.57;;
9438;SDS011;5176;42.622;25.386;2023-02-28T05:46:50;36.43;;;23.30;;
9438;SDS011;5176;42.622;25.386;2023-02-28T05:49:19;43.23;;;25.47;;
9438;SDS011;5176;42.622;25.386;2023-02-28T05:51:50;31.90;;;22.07;;
9438;SDS011;5176;42.622;25.386;2023-02-28T05:54:19;33.50;;;22.17;;
9438;SDS011;5176;42.622;25.386;2023-02-28T05:56:47;33.13;;;23.03;;
9438;SDS011;5176;42.622;25.386;2023-02-28T05:59:17;33.37;;;22.23;;
9438;SDS011;5176;42.622;25.386;2023-02-28T06:01:45;30.00;;;20.20;;
9438;SDS011;5176;42.622;25.386;2023-02-28T06:04:16;30.53;;;21.10;;
9438;SDS011;5176;42.622;25.386;2023-02-28T06:06:46;29.50;;;19.37;;
9438;SDS011;5176;42.622;25.386;2023-02-28T06:09:18;32.90;;;20.50;;
9438;SDS011;5176;42.622;25.386;2023-02-28T06:11:46;32.03;;;22.07;;
9438;SDS011;5176;42.622;25.386;2023-02-28T06:14:16;36.90;;;21.17;;
9438;SDS011;5176;42.622;25.386;2023-02-28T06:16:47;31.10;;;19.30;;
9438;SDS011;5176;42.622;25.386;2023-02-28T06:19:16;28.17;;;20.17;;
9438;SDS011;5176;42.622;25.386;2023-02-28T06:21:45;26.30;;;18.77;;
9438;SDS011;5176;42.622;25.386;2023-02-28T06:24:20;27.13;;;18.40;;
9438;SDS011;5176;42.622;25.386;2023-02-28T06:26:50;28.57;;;20.27;;
9438;SDS011;5176;42.622;25.386;2023-02-28T06:29:19;30.13;;;19.83;;
9438;SDS011;5176;42.622;25.386;2023-02-28T06:31:48;32.50;;;19.70;;
9438;SDS011;5176;42.622;25.386;2023-02-28T06:34:17;28.80;;;18.47;;
9438;SDS011;5176;42.622;25.386;2023-02-28T06:36:45;29.83;;;18.40;;
9438;SDS011;5176;42.622;25.386;2023-02-28T06:39:15;30.43;;;19.30;;
9438;SDS011;5176;42.622;25.386;2023-02-28T06:41:46;31.87;;;18.90;;
9438;SDS011;5176;42.622;25.386;2023-02-28T06:44:16;30.77;;;18.63;;
9438;SDS011;5176;42.622;25.386;2023-02-28T06:46:45;28.57;;;19.43;;
9438;SDS011;5176;42.622;25.386;2023-02-28T06:49:14;28.07;;;19.60;;
9438;SDS011;5176;42.622;25.386;2023-02-28T06:51:43;25.17;;;18.70;;
9438;SDS011;5176;42.622;25.386;2023-02-28T06:54:14;27.90;;;17.63;;
9438;SDS011;5176;42.622;25.386;2023-02-28T06:56:43;26.53;;;15.70;;
9438;SDS011;5176;42.622;25.386;2023-02-28T06:59:15;25.37;;;17.33;;
9438;SDS011;5176;42.622;25.386;2023-02-28T07:01:44;20.80;;;15.33;;
9438;SDS011;5176;42.622;25.386;2023-02-28T07:04:13;21.67;;;14.67;;
9438;SDS011;5176;42.622;25.386;2023-02-28T07:06:41;18.80;;;13.30;;
9438;SDS011;5176;42.622;25.386;2023-02-28T07:09:10;20.73;;;13.20;;
9438;SDS011;5176;42.622;25.386;2023-02-28T07:11:40;19.63;;;13.20;;
9438;SDS011;5176;42.622;25.386;2023-02-28T07:14:09;20.67;;;12.47;;
9438;SDS011;5176;42.622;25.386;2023-02-28T07:16:39;18.30;;;12.30;;
9438;SDS011;5176;42.622;25.386;2023-02-28T07:19:08;19.07;;;11.57;;
9438;SDS011;5176;42.622;25.386;2023-02-28T07:21:37;18.10;;;12.20;;
9438;SDS011;5176;42.622;25.386;2023-02-28T07:24:06;14.30;;;10.33;;
9438;SDS011;5176;42.622;25.386;2023-02-28T07:26:34;16.53;;;10.27;;
9438;SDS011;5176;42.622;25.386;2023-02-28T07:29:03;14.87;;;9.73;;
9438;SDS011;5176;42.622;25.386;2023-02-28T07:31:32;18.70;;;10.03;;
9438;SDS011;5176;42.622;25.386;2023-02-28T07:34:04;17.80;;;11.17;;
9438;SDS011;5176;42.622;25.386;2023-02-28T07:36:32;20.33;;;10.87;;
9438;SDS011;5176;42.622;25.386;2023-02-28T07:39:01;16.07;;;9.97;;
9438;SDS011;5176;42.622;25.386;2023-02-28T07:41:30;15.73;;;10.03;;
9438;SDS011;5176;42.622;25.386;2023-02-28T07:44:00;15.83;;;10.20;;
9438;SDS011;5176;42.622;25.386;2023-02-28T07:46:29;20.67;;;11.93;;
9438;SDS011;5176;42.622;25.386;2023-02-28T07:49:03;27.07;;;16.13;;
9438;SDS011;5176;42.622;25.386;2023-02-28T07:51:32;55.47;;;33.10;;
9438;SDS011;5176;42.622;25.386;2023-02-28T07:54:02;17.27;;;11.63;;
9438;SDS011;5176;42.622;25.386;2023-02-28T07:56:32;17.97;;;11.03;;
9438;SDS011;5176;42.622;25.386;2023-02-28T07:59:02;19.53;;;11.03;;
9438;SDS011;5176;42.622;25.386;2023-02-28T08:01:30;22.87;;;10.90;;
9438;SDS011;5176;42.622;25.386;2023-02-28T08:04:00;19.90;;;10.80;;
9438;SDS011;5176;42.622;25.386;2023-02-28T08:06:32;23.67;;;13.67;;
9438;SDS011;5176;42.622;25.386;2023-02-28T08:09:01;25.70;;;13.87;;
9438;SDS011;5176;42.622;25.386;2023-02-28T08:11:30;28.17;;;13.73;;
9438;SDS011;5176;42.622;25.386;2023-02-28T08:13:59;19.93;;;12.57;;
9438;SDS011;5176;42.622;25.386;2023-02-28T08:16:28;24.73;;;11.37;;
9438;SDS011;5176;42.622;25.386;2023-02-28T08:18:57;19.53;;;10.33;;
9438;SDS011;5176;42.622;25.386;2023-02-28T08:21:25;26.63;;;11.97;;
9438;SDS011;5176;42.622;25.386;2023-02-28T08:23:56;27.43;;;12.50;;
9438;SDS011;5176;42.622;25.386;2023-02-28T08:26:25;18.97;;;11.30;;
9438;SDS011;5176;42.622;25.386;2023-02-28T08:28:54;26.57;;;12.23;;
9438;SDS011;5176;42.622;25.386;2023-02-28T08:31:23;30.33;;;12.90;;
9438;SDS011;5176;42.622;25.386;2023-02-28T08:33:52;26.33;;;12.10;;
9438;SDS011;5176;42.622;25.386;2023-02-28T08:36:23;22.90;;;11.03;;
9438;SDS011;5176;42.622;25.386;2023-02-28T08:38:52;22.00;;;10.97;;
9438;SDS011;5176;42.622;25.386;2023-02-28T08:41:23;19.60;;;11.00;;
9438;SDS011;5176;42.622;25.386;2023-02-28T08:43:52;22.47;;;10.87;;
9438;SDS011;5176;42.622;25.386;2023-02-28T08:46:21;18.87;;;10.57;;
9438;SDS011;5176;42.622;25.386;2023-02-28T08:48:51;19.87;;;10.90;;
9438;SDS011;5176;42.622;25.386;2023-02-28T08:51:21;20.23;;;11.30;;
9438;SDS011;5176;42.622;25.386;2023-02-28T08:53:53;25.30;;;12.43;;
9438;SDS011;5176;42.622;25.386;2023-02-28T08:56:24;28.53;;;12.07;;
9438;SDS011;5176;42.622;25.386;2023-02-28T08:58:55;22.87;;;13.13;;
9438;SDS011;5176;42.622;25.386;2023-02-28T09:01:26;22.77;;;12.50;;
9438;SDS011;5176;42.622;25.386;2023-02-28T09:03:56;20.07;;;10.93;;
9438;SDS011;5176;42.622;25.386;2023-02-28T09:06:26;22.67;;;13.50;;
9438;SDS011;5176;42.622;25.386;2023-02-28T09:08:57;37.10;;;15.53;;
9438;SDS011;5176;42.622;25.386;2023-02-28T09:11:30;25.07;;;13.97;;
9438;SDS011;5176;42.622;25.386;2023-02-28T09:14:01;21.13;;;13.07;;
9438;SDS011;5176;42.622;25.386;2023-02-28T09:16:31;22.63;;;11.70;;
9438;SDS011;5176;42.622;25.386;2023-02-28T09:19:02;26.80;;;13.23;;
9438;SDS011;5176;42.622;25.386;2023-02-28T09:21:30;23.47;;;12.43;;
9438;SDS011;5176;42.622;25.386;2023-02-28T09:23:59;19.63;;;10.50;;
9438;SDS011;5176;42.622;25.386;2023-02-28T09:26:30;16.47;;;10.97;;
9438;SDS011;5176;42.622;25.386;2023-02-28T09:28:58;20.47;;;11.73;;
9438;SDS011;5176;42.622;25.386;2023-02-28T09:31:29;22.10;;;11.77;;
9438;SDS011;5176;42.622;25.386;2023-02-28T09:33:58;20.43;;;10.53;;
9438;SDS011;5176;42.622;25.386;2023-02-28T09:36:28;30.70;;;11.07;;
9438;SDS011;5176;42.622;25.386;2023-02-28T09:38:57;22.77;;;12.30;;
9438;SDS011;5176;42.622;25.386;2023-02-28T09:41:26;26.50;;;15.27;;
9438;SDS011;5176;42.622;25.386;2023-02-28T09:44:04;31.73;;;20.87;;
9438;SDS011;5176;42.622;25.386;2023-02-28T09:46:37;30.63;;;18.60;;
9438;SDS011;5176;42.622;25.386;2023-02-28T09:49:11;22.40;;;13.87;;
9438;SDS011;5176;42.622;25.386;2023-02-28T09:51:46;17.63;;;11.93;;
9438;SDS011;5176;42.622;25.386;2023-02-28T09:54:20;41.23;;;25.53;;
9438;SDS011;5176;42.622;25.386;2023-02-28T09:56:51;23.43;;;14.97;;
9438;SDS011;5176;42.622;25.386;2023-02-28T09:59:30;25.80;;;12.13;;
9438;SDS011;5176;42.622;25.386;2023-02-28T10:02:12;21.03;;;11.53;;
9438;SDS011;5176;42.622;25.386;2023-02-28T10:04:50;21.50;;;11.00;;
9438;SDS011;5176;42.622;25.386;2023-02-28T10:07:28;27.37;;;12.20;;
9438;SDS011;5176;42.622;25.386;2023-02-28T10:12:48;25.47;;;13.50;;
9438;SDS011;5176;42.622;25.386;2023-02-28T10:15:24;18.67;;;12.63;;
9438;SDS011;5176;42.622;25.386;2023-02-28T10:17:57;22.47;;;12.60;;
9438;SDS011;5176;42.622;25.386;2023-02-28T10:20:32;17.90;;;11.93;;
9438;SDS011;5176;42.622;25.386;2023-02-28T10:23:04;24.17;;;13.00;;
9438;SDS011;5176;42.622;25.386;2023-02-28T10:25:41;29.23;;;15.57;;
9438;SDS011;5176;42.622;25.386;2023-02-28T10:28:16;24.00;;;14.83;;
9438;SDS011;5176;42.622;25.386;2023-02-28T10:30:49;32.90;;;16.33;;
9438;SDS011;5176;42.622;25.386;2023-02-28T10:33:21;28.30;;;14.97;;
9438;SDS011;5176;42.622;25.386;2023-02-28T10:35:52;25.93;;;14.57;;
9438;SDS011;5176;42.622;25.386;2023-02-28T10:38:22;46.97;;;33.30;;
9438;SDS011;5176;42.622;25.386;2023-02-28T10:40:58;30.03;;;17.23;;
9438;SDS011;5176;42.622;25.386;2023-02-28T10:43:32;23.53;;;15.70;;
9438;SDS011;5176;42.622;25.386;2023-02-28T10:46:04;32.70;;;16.27;;
9438;SDS011;5176;42.622;25.386;2023-02-28T10:48:41;24.33;;;14.17;;
9438;SDS011;5176;42.622;25.386;2023-02-28T10:51:15;24.73;;;14.73;;
9438;SDS011;5176;42.622;25.386;2023-02-28T10:53:48;22.23;;;14.03;;
9438;SDS011;5176;42.622;25.386;2023-02-28T10:56:18;26.87;;;15.53;;
9438;SDS011;5176;42.622;25.386;2023-02-28T10:58:50;44.70;;;26.33;;
9438;SDS011;5176;42.622;25.386;2023-02-28T11:01:24;24.90;;;14.80;;
9438;SDS011;5176;42.622;25.386;2023-02-28T11:04:02;28.73;;;15.33;;
9438;SDS011;5176;42.622;25.386;2023-02-28T11:06:32;30.43;;;18.20;;
9438;SDS011;5176;42.622;25.386;2023-02-28T11:09:03;23.87;;;15.23;;
9438;SDS011;5176;42.622;25.386;2023-02-28T11:11:42;23.00;;;14.50;;
9438;SDS011;5176;42.622;25.386;2023-02-28T11:14:16;29.50;;;21.70;;
9438;SDS011;5176;42.622;25.386;2023-02-28T11:16:51;24.90;;;16.43;;
9438;SDS011;5176;42.622;25.386;2023-02-28T11:19:23;38.37;;;24.63;;
9438;SDS011;5176;42.622;25.386;2023-02-28T11:21:55;37.50;;;19.73;;
9438;SDS011;5176;42.622;25.386;2023-02-28T11:24:27;29.53;;;16.53;;
9438;SDS011;5176;42.622;25.386;2023-02-28T11:26:59;25.33;;;16.03;;
9438;SDS011;5176;42.622;25.386;2023-02-28T11:29:28;26.27;;;18.97;;
9438;SDS011;5176;42.622;25.386;2023-02-28T11:32:16;28.33;;;21.00;;
9438;SDS011;5176;42.622;25.386;2023-02-28T11:34:59;29.40;;;15.30;;
9438;SDS011;5176;42.622;25.386;2023-02-28T11:37:29;24.47;;;15.00;;
9438;SDS011;5176;42.622;25.386;2023-02-28T11:40:00;24.17;;;14.40;;
9438;SDS011;5176;42.622;25.386;2023-02-28T11:42:38;25.17;;;16.67;;
9438;SDS011;5176;42.622;25.386;2023-02-28T11:45:24;30.70;;;16.93;;
9438;SDS011;5176;42.622;25.386;2023-02-28T11:48:08;33.40;;;19.97;;
9438;SDS011;5176;42.622;25.386;2023-02-28T11:50:47;21.03;;;13.67;;
9438;SDS011;5176;42.622;25.386;2023-02-28T11:53:28;31.40;;;16.93;;
9438;SDS011;5176;42.622;25.386;2023-02-28T11:56:20;27.77;;;15.03;;
9438;SDS011;5176;42.622;25.386;2023-02-28T11:58:57;29.50;;;16.83;;
9438;SDS011;5176;42.622;25.386;2023-02-28T12:01:42;25.07;;;15.90;;
9438;SDS011;5176;42.622;25.386;2023-02-28T12:04:34;26.87;;;16.63;;
9438;SDS011;5176;42.622;25.386;2023-02-28T12:07:16;29.77;;;15.37;;
9438;SDS011;5176;42.622;25.386;2023-02-28T12:09:56;22.93;;;12.87;;
9438;SDS011;5176;42.622;25.386;2023-02-28T12:12:37;25.97;;;13.83;;
9438;SDS011;5176;42.622;25.386;2023-02-28T12:18:20;24.17;;;13.00;;
9438;SDS011;5176;42.622;25.386;2023-02-28T12:21:09;21.77;;;12.37;;
9438;SDS011;5176;42.622;25.386;2023-02-28T12:23:46;22.77;;;15.33;;
9438;SDS011;5176;42.622;25.386;2023-02-28T12:26:31;20.47;;;13.17;;
9438;SDS011;5176;42.622;25.386;2023-02-28T12:29:09;21.93;;;14.40;;
9438;SDS011;5176;42.622;25.386;2023-02-28T12:31:45;28.27;;;15.07;;
9438;SDS011;5176;42.622;25.386;2023-02-28T12:34:19;25.43;;;15.73;;
9438;SDS011;5176;42.622;25.386;2023-02-28T12:36:53;25.50;;;15.17;;
9438;SDS011;5176;42.622;25.386;2023-02-28T12:39:28;28.97;;;18.50;;
9438;SDS011;5176;42.622;25.386;2023-02-28T12:42:01;28.20;;;17.77;;
9438;SDS011;5176;42.622;25.386;2023-02-28T12:44:34;28.07;;;16.50;;
9438;SDS011;5176;42.622;25.386;2023-02-28T12:47:09;30.47;;;19.63;;
9438;SDS011;5176;42.622;25.386;2023-02-28T12:49:43;33.83;;;21.23;;
9438;SDS011;5176;42.622;25.386;2023-02-28T12:52:19;34.37;;;20.97;;
9438;SDS011;5176;42.622;25.386;2023-02-28T12:54:59;33.07;;;22.07;;
9438;SDS011;5176;42.622;25.386;2023-02-28T12:57:32;38.17;;;24.87;;
9438;SDS011;5176;42.622;25.386;2023-02-28T13:00:10;47.17;;;28.20;;
9438;SDS011;5176;42.622;25.386;2023-02-28T13:05:57;28.87;;;19.40;;
9438;SDS011;5176;42.622;25.386;2023-02-28T13:11:39;36.37;;;20.20;;
9438;SDS011;5176;42.622;25.386;2023-02-28T13:14:23;33.63;;;20.90;;
9438;SDS011;5176;42.622;25.386;2023-02-28T13:16:58;24.80;;;16.60;;
9438;SDS011;5176;42.622;25.386;2023-02-28T13:19:30;27.33;;;15.13;;
9438;SDS011;5176;42.622;25.386;2023-02-28T13:21:59;26.13;;;18.83;;
9438;SDS011;5176;42.622;25.386;2023-02-28T13:24:47;25.93;;;18.40;;
9438;SDS011;5176;42.622;25.386;2023-02-28T13:33:21;29.33;;;17.13;;
9438;SDS011;5176;42.622;25.386;2023-02-28T13:36:09;38.67;;;24.97;;
9438;SDS011;5176;42.622;25.386;2023-02-28T13:38:56;24.57;;;16.73;;
9438;SDS011;5176;42.622;25.386;2023-02-28T13:41:45;30.90;;;19.23;;
9438;SDS011;5176;42.622;25.386;2023-02-28T13:44:16;40.43;;;18.83;;
9438;SDS011;5176;42.622;25.386;2023-02-28T13:50:14;43.70;;;30.20;;
9438;SDS011;5176;42.622;25.386;2023-02-28T13:52:53;26.47;;;18.23;;
9438;SDS011;5176;42.622;25.386;2023-02-28T13:55:31;27.10;;;18.10;;
9438;SDS011;5176;42.622;25.386;2023-02-28T13:58:14;42.23;;;27.50;;
9438;SDS011;5176;42.622;25.386;2023-02-28T14:01:09;28.17;;;20.10;;
9438;SDS011;5176;42.622;25.386;2023-02-28T14:04:14;38.47;;;24.87;;
9438;SDS011;5176;42.622;25.386;2023-02-28T14:07:05;35.73;;;23.43;;
9438;SDS011;5176;42.622;25.386;2023-02-28T14:09:36;33.80;;;22.50;;
9438;SDS011;5176;42.622;25.386;2023-02-28T14:18:34;30.47;;;20.07;;
9438;SDS011;5176;42.622;25.386;2023-02-28T14:21:11;27.43;;;20.33;;
9438;SDS011;5176;42.622;25.386;2023-02-28T14:24:01;26.63;;;20.50;;
9438;SDS011;5176;42.622;25.386;2023-02-28T14:26:49;24.30;;;19.13;;
9438;SDS011;5176;42.622;25.386;2023-02-28T14:29:41;28.83;;;19.40;;
9438;SDS011;5176;42.622;25.386;2023-02-28T14:32:41;25.90;;;18.80;;
9438;SDS011;5176;42.622;25.386;2023-02-28T14:35:22;27.57;;;19.87;;
9438;SDS011;5176;42.622;25.386;2023-02-28T14:38:16;27.27;;;20.03;;
9438;SDS011;5176;42.622;25.386;2023-02-28T14:40:52;28.87;;;21.33;;
9438;SDS011;5176;42.622;25.386;2023-02-28T14:43:24;27.57;;;20.83;;
9438;SDS011;5176;42.622;25.386;2023-02-28T14:45:55;31.80;;;20.33;;
9438;SDS011;5176;42.622;25.386;2023-02-28T14:48:26;37.60;;;22.60;;
9438;SDS011;5176;42.622;25.386;2023-02-28T14:50:58;32.23;;;20.47;;
9438;SDS011;5176;42.622;25.386;2023-02-28T14:53:28;34.97;;;21.70;;
9438;SDS011;5176;42.622;25.386;2023-02-28T14:56:04;32.33;;;20.90;;
9438;SDS011;5176;42.622;25.386;2023-02-28T14:58:35;30.87;;;20.50;;
9438;SDS011;5176;42.622;25.386;2023-02-28T15:01:04;35.30;;;22.70;;
9438;SDS011;5176;42.622;25.386;2023-02-28T15:03:34;34.70;;;23.77;;
9438;SDS011;5176;42.622;25.386;2023-02-28T15:06:12;39.50;;;26.27;;
9438;SDS011;5176;42.622;25.386;2023-02-28T15:08:43;31.20;;;21.83;;
9438;SDS011;5176;42.622;25.386;2023-02-28T15:11:13;36.67;;;25.17;;
9438;SDS011;5176;42.622;25.386;2023-02-28T15:13:45;36.13;;;21.50;;
9438;SDS011;5176;42.622;25.386;2023-02-28T15:16:16;29.03;;;20.63;;
9438;SDS011;5176;42.622;25.386;2023-02-28T15:18:48;27.67;;;20.17;;
9438;SDS011;5176;42.622;25.386;2023-02-28T15:21:23;31.03;;;20.73;;
9438;SDS011;5176;42.622;25.386;2023-02-28T15:23:56;30.90;;;20.83;;
9438;SDS011;5176;42.622;25.386;2023-02-28T15:26:29;32.00;;;21.47;;
9438;SDS011;5176;42.622;25.386;2023-02-28T15:29:01;37.27;;;24.53;;
9438;SDS011;5176;42.622;25.386;2023-02-28T15:31:33;36.70;;;22.07;;
9438;SDS011;5176;42.622;25.386;2023-02-28T15:34:05;31.57;;;20.30;;
9438;SDS011;5176;42.622;25.386;2023-02-28T15:36:36;31.20;;;22.73;;
9438;SDS011;5176;42.622;25.386;2023-02-28T15:39:17;37.90;;;24.00;;